createdAt,value
2017-05-04T00:00:08.794Z,27.8
2017-05-04T00:01:08.782Z,27.8
2017-05-04T00:02:08.982Z,27.8
2017-05-04T00:03:09.960Z,27.8
2017-05-04T00:04:08.939Z,27.8
2017-05-04T00:05:09.189Z,27.8
2017-05-04T00:06:09.052Z,27.8
2017-05-04T00:07:09.033Z,27.8
2017-05-04T00:08:10.111Z,27.8
2017-05-04T00:09:10.197Z,27.8
2017-05-04T00:10:09.267Z,27.8
2017-05-04T00:11:09.404Z,27.8
2017-05-04T00:12:09.296Z,27.8
2017-05-04T00:13:10.353Z,27.8
2017-05-04T00:14:09.281Z,27.8
2017-05-04T00:15:09.391Z,27.8
2017-05-04T00:16:10.440Z,27.8
2017-05-04T00:17:09.655Z,27.8
2017-05-04T00:18:10.595Z,27.8
2017-05-04T00:19:10.696Z,27.8
2017-05-04T00:20:10.655Z,27.8
2017-05-04T00:21:10.269Z,27.8
2017-05-04T00:22:10.744Z,27.8
2017-05-04T00:23:11.007Z,27.8
2017-05-04T00:24:10.786Z,27.8
2017-05-04T00:25:09.856Z,27.8
2017-05-04T00:26:09.886Z,27.8
2017-05-04T00:27:10.075Z,27.8
2017-05-04T00:28:11.065Z,27.8
2017-05-04T00:29:11.368Z,27.8
2017-05-04T00:30:11.216Z,27.8
2017-05-04T00:31:11.131Z,27.8
2017-05-04T00:32:11.240Z,27.8
2017-05-04T00:33:11.235Z,27.8
2017-05-04T00:34:11.350Z,27.8
2017-05-04T00:35:10.715Z,27.8
2017-05-04T00:36:10.315Z,27.8
2017-05-04T00:37:11.393Z,27.8
2017-05-04T00:38:11.527Z,27.8
2017-05-04T00:39:10.573Z,27.8
2017-05-04T00:40:11.630Z,27.8
2017-05-04T00:41:10.996Z,27.8
2017-05-04T00:42:10.665Z,27.8
2017-05-04T00:43:11.891Z,27.8
2017-05-04T00:44:11.880Z,27.8
2017-05-04T00:45:11.970Z,27.8
2017-05-04T00:46:10.960Z,27.8
2017-05-04T00:47:11.273Z,27.8
2017-05-04T00:48:10.895Z,27.8
2017-05-04T00:49:11.114Z,27.8
2017-05-04T00:50:11.079Z,27.8
2017-05-04T00:51:12.709Z,27.8
2017-05-04T00:52:12.486Z,27.8
2017-05-04T00:53:11.511Z,27.8
2017-05-04T00:54:11.281Z,27.8
2017-05-04T00:55:11.410Z,27.8
2017-05-04T00:56:12.466Z,27.8
2017-05-04T00:57:11.505Z,27.8
2017-05-04T00:58:11.432Z,27.8
2017-05-04T00:59:11.750Z,27.8
2017-05-04T01:00:11.436Z,27.8
2017-05-04T01:01:11.573Z,27.8
2017-05-04T01:02:11.569Z,27.8
2017-05-04T01:03:11.659Z,27.8
2017-05-04T01:04:11.706Z,27.8
2017-05-04T01:05:13.400Z,27.8
2017-05-04T01:06:11.918Z,27.8
2017-05-04T01:07:11.926Z,27.8
2017-05-04T01:08:13.020Z,27.8
2017-05-04T01:09:11.976Z,27.8
2017-05-04T01:10:13.130Z,27.8
2017-05-04T01:11:13.485Z,27.8
2017-05-04T01:12:13.287Z,27.8
2017-05-04T01:13:13.341Z,27.8
2017-05-04T01:14:12.378Z,27.8
2017-05-04T01:15:13.533Z,27.8
2017-05-04T01:16:12.596Z,27.8
2017-05-04T01:17:13.849Z,27.8
2017-05-04T01:18:13.659Z,27.8
2017-05-04T01:19:13.740Z,27.8
2017-05-04T01:20:13.734Z,27.8
2017-05-04T01:21:13.799Z,27.8
2017-05-04T01:22:12.809Z,27.8
2017-05-04T01:23:13.083Z,27.8
2017-05-04T01:24:13.869Z,27.8
2017-05-04T01:25:12.825Z,27.8
2017-05-04T01:26:14.017Z,27.8
2017-05-04T01:27:13.024Z,27.8
2017-05-04T01:28:13.068Z,27.8
2017-05-04T01:29:14.400Z,27.8
2017-05-04T01:30:14.166Z,27.8
2017-05-04T01:31:13.074Z,27.8
2017-05-04T01:32:13.087Z,27.8
2017-05-04T01:33:13.190Z,27.8
2017-05-04T01:34:14.386Z,27.8
2017-05-04T01:35:13.688Z,27.8
2017-05-04T01:36:14.542Z,27.8
2017-05-04T01:37:14.531Z,27.8
2017-05-04T01:38:13.473Z,27.8
2017-05-04T01:39:14.689Z,27.8
2017-05-04T01:40:14.690Z,27.8
2017-05-04T01:41:13.993Z,27.8
2017-05-04T01:42:14.869Z,27.8
2017-05-04T01:43:13.877Z,27.8
2017-05-04T01:44:13.832Z,27.8
2017-05-04T01:45:14.998Z,27.8
2017-05-04T01:46:14.932Z,27.8
2017-05-04T01:47:15.332Z,27.8
2017-05-04T01:48:14.980Z,27.8
2017-05-04T01:49:13.947Z,27.8
2017-05-04T01:50:15.084Z,27.8
2017-05-04T01:51:15.107Z,27.8
2017-05-04T01:52:15.176Z,27.8
2017-05-04T01:53:15.465Z,27.8
2017-05-04T01:54:14.236Z,27.8
2017-05-04T01:55:14.131Z,27.8
2017-05-04T01:56:14.137Z,27.8
2017-05-04T01:57:15.322Z,27.8
2017-05-04T01:58:14.396Z,27.8
2017-05-04T01:59:15.748Z,27.8
2017-05-04T02:00:14.533Z,27.8
2017-05-04T02:01:15.586Z,27.8
2017-05-04T02:02:15.662Z,27.8
2017-05-04T02:03:15.674Z,27.8
2017-05-04T02:04:15.822Z,27.8
2017-05-04T02:05:16.089Z,27.8
2017-05-04T02:06:15.901Z,27.8
2017-05-04T02:07:15.987Z,27.8
2017-05-04T02:08:15.963Z,27.8
2017-05-04T02:09:16.076Z,27.8
2017-05-04T02:10:15.064Z,27.8
2017-05-04T02:11:16.398Z,27.8
2017-05-04T02:12:15.264Z,27.8
2017-05-04T02:13:16.246Z,27.8
2017-05-04T02:14:15.288Z,27.9
2017-05-04T02:15:16.348Z,27.8
2017-05-04T02:16:15.348Z,27.8
2017-05-04T02:17:15.747Z,27.8
2017-05-04T02:18:15.528Z,27.8
2017-05-04T02:19:16.584Z,27.8
2017-05-04T02:20:16.729Z,27.8
2017-05-04T02:21:15.733Z,27.8
2017-05-04T02:22:16.737Z,27.8
2017-05-04T02:23:15.956Z,27.8
2017-05-04T02:24:15.770Z,27.8
2017-05-04T02:25:16.825Z,27.8
2017-05-04T02:26:16.907Z,27.8
2017-05-04T02:27:16.973Z,27.8
2017-05-04T02:31:57.942Z,27.9
2017-05-04T02:32:57.632Z,27.9
2017-05-04T02:33:56.561Z,27.9
2017-05-04T02:34:56.737Z,27.9
2017-05-04T02:35:57.886Z,27.9
2017-05-04T02:36:57.962Z,27.9
2017-05-04T02:37:57.176Z,27.9
2017-05-04T02:38:58.127Z,27.9
2017-05-04T02:39:57.103Z,27.9
2017-05-04T02:41:03.958Z,27.9
2017-05-04T02:41:57.319Z,27.9
2017-05-04T02:42:57.416Z,27.9
2017-05-04T02:43:58.782Z,27.9
2017-05-04T02:44:58.562Z,27.9
2017-05-04T02:45:58.644Z,27.9
2017-05-04T02:46:58.684Z,27.9
2017-05-04T02:47:57.622Z,27.9
2017-05-04T02:48:58.849Z,27.9
2017-05-04T02:49:59.172Z,27.9
2017-05-04T02:50:58.950Z,27.9
2017-05-04T02:51:58.982Z,27.9
2017-05-04T02:52:57.922Z,27.9
2017-05-04T02:53:59.035Z,27.9
2017-05-04T02:54:59.107Z,27.9
2017-05-04T02:55:58.354Z,27.9
2017-05-04T02:56:59.261Z,27.9
2017-05-04T02:57:59.328Z,27.9
2017-05-04T02:58:59.317Z,27.9
2017-05-04T02:59:59.422Z,27.9
2017-05-04T03:00:59.509Z,27.9
2017-05-04T03:01:59.775Z,27.9
2017-05-04T03:02:58.494Z,27.9
2017-05-04T03:03:59.539Z,27.9
2017-05-04T03:04:58.427Z,27.9
2017-05-04T03:05:58.659Z,27.9
2017-05-04T03:06:58.664Z,27.9
2017-05-04T03:07:59.585Z,27.9
2017-05-04T03:08:58.779Z,27.9
2017-05-04T03:09:59.872Z,27.9
2017-05-04T03:11:00.045Z,27.9
2017-05-04T03:11:59.908Z,27.9
2017-05-04T03:12:59.958Z,27.9
2017-05-04T03:14:00.255Z,27.9
2017-05-04T03:14:59.971Z,27.9
2017-05-04T03:15:58.939Z,27.8
2017-05-04T03:17:00.083Z,27.8
2017-05-04T03:18:00.118Z,27.9
2017-05-04T03:19:00.301Z,27.9
2017-05-04T03:20:00.697Z,27.9
2017-05-04T03:20:59.323Z,27.8
2017-05-04T03:21:59.441Z,27.9
2017-05-04T03:22:59.361Z,27.9
2017-05-04T03:23:59.446Z,27.9
2017-05-04T03:25:00.578Z,27.9
2017-05-04T03:25:59.758Z,27.9
2017-05-04T03:27:00.663Z,27.9
2017-05-04T03:27:59.709Z,27.9
2017-05-04T03:28:59.723Z,27.9
2017-05-04T03:29:59.653Z,27.9
2017-05-04T03:30:59.733Z,27.9
2017-05-04T03:32:00.167Z,27.9
2017-05-04T03:33:00.975Z,27.9
2017-05-04T03:34:00.083Z,27.9
2017-05-04T03:35:00.066Z,27.9
2017-05-04T03:36:00.267Z,27.9
2017-05-04T03:37:00.122Z,27.9
2017-05-04T03:38:01.565Z,27.9
2017-05-04T03:39:00.169Z,27.9
2017-05-04T03:40:00.278Z,27.8
2017-05-04T03:41:01.475Z,27.9
2017-05-04T03:42:01.457Z,27.9
2017-05-04T03:43:01.557Z,27.9
2017-05-04T03:44:01.816Z,27.9
2017-05-04T03:45:00.495Z,27.9
2017-05-04T03:46:01.677Z,27.9
2017-05-04T03:47:01.679Z,27.9
2017-05-04T03:48:01.723Z,27.9
2017-05-04T03:49:01.755Z,28.1
2017-05-04T03:50:00.990Z,28.3
2017-05-04T03:51:00.824Z,28.6
2017-05-04T03:52:01.968Z,28.9
2017-05-04T03:53:00.980Z,29.2
2017-05-04T03:54:02.138Z,29.4
2017-05-04T03:55:02.163Z,29.7
2017-05-04T03:56:02.505Z,29.9
2017-05-04T03:57:02.275Z,30.2
2017-05-04T03:58:01.217Z,30.4
2017-05-04T03:59:01.345Z,30.7
2017-05-04T04:00:01.370Z,30.8
2017-05-04T04:01:02.435Z,31
2017-05-04T04:02:02.755Z,31.1
2017-05-04T04:03:02.672Z,31.2
2017-05-04T04:04:02.587Z,31.3
2017-05-04T04:05:01.563Z,31.4
2017-05-04T04:06:01.594Z,31.4
2017-05-04T04:07:01.732Z,31.5
2017-05-04T04:08:03.006Z,31.5
2017-05-04T04:09:01.808Z,31.5
2017-05-04T04:10:01.714Z,31.5
2017-05-04T04:11:02.834Z,31.5
2017-05-04T04:12:01.863Z,31.5
2017-05-04T04:13:01.978Z,31.5
2017-05-04T04:14:03.394Z,31.5
2017-05-04T04:15:03.095Z,31.5
2017-05-04T04:16:02.142Z,31.5
2017-05-04T04:17:02.170Z,31.5
2017-05-04T04:18:02.196Z,31.5
2017-05-04T04:19:02.213Z,31.5
2017-05-04T04:20:03.624Z,31.5
2017-05-04T04:21:03.265Z,31.5
2017-05-04T04:22:03.381Z,31.5
2017-05-04T04:23:03.307Z,31.5
2017-05-04T04:24:03.336Z,31.5
2017-05-04T04:25:03.464Z,31.5
2017-05-04T04:26:03.743Z,31.5
2017-05-04T04:27:02.434Z,31.5
2017-05-04T04:28:02.549Z,31.4
2017-05-04T04:29:02.619Z,31.4
2017-05-04T04:30:02.603Z,31.4
2017-05-04T04:31:02.776Z,31.5
2017-05-04T04:32:03.090Z,31.5
2017-05-04T04:33:03.958Z,31.5
2017-05-04T04:34:02.772Z,31.5
2017-05-04T04:35:03.838Z,31.4
2017-05-04T04:36:03.947Z,31.6
2017-05-04T04:37:02.912Z,31.6
2017-05-04T04:38:04.228Z,31.7
2017-05-04T04:39:02.898Z,31.8
2017-05-04T04:40:03.074Z,31.9
2017-05-04T04:41:03.058Z,32.1
2017-05-04T04:42:03.057Z,32.2
2017-05-04T04:43:03.164Z,32.3
2017-05-04T04:44:04.547Z,32.4
2017-05-04T04:45:04.339Z,32.5
2017-05-04T04:46:04.427Z,32.5
2017-05-04T04:47:03.429Z,32.6
2017-05-04T04:48:03.416Z,32.7
2017-05-04T04:49:03.625Z,32.8
2017-05-04T04:50:03.529Z,32.9
2017-05-04T04:51:04.733Z,32.9
2017-05-04T04:52:04.782Z,33
2017-05-04T04:53:04.741Z,33
2017-05-04T04:54:04.842Z,33
2017-05-04T04:55:05.415Z,33
2017-05-04T04:56:04.871Z,33
2017-05-04T04:57:05.018Z,33
2017-05-04T04:58:05.165Z,33
2017-05-04T04:59:04.017Z,33
2017-05-04T05:00:04.065Z,33.1
2017-05-04T05:01:04.199Z,33
2017-05-04T05:02:05.336Z,33
2017-05-04T05:03:05.331Z,33
2017-05-04T05:04:06.658Z,33
2017-05-04T05:05:04.366Z,32.9
2017-05-04T05:06:04.374Z,32.9
2017-05-04T05:07:04.932Z,32.9
2017-05-04T05:08:05.557Z,32.8
2017-05-04T05:09:05.529Z,32.8
2017-05-04T05:10:04.490Z,32.8
2017-05-04T05:11:06.173Z,32.8
2017-05-04T05:12:06.385Z,32.9
2017-05-04T05:13:05.844Z,32.9
2017-05-04T05:14:06.411Z,32.9
2017-05-04T05:15:04.836Z,32.9
2017-05-04T05:16:04.827Z,32.9
2017-05-04T05:17:05.934Z,32.9
2017-05-04T05:18:06.079Z,32.9
2017-05-04T05:19:04.994Z,32.9
2017-05-04T05:20:06.226Z,32.9
2017-05-04T05:21:05.837Z,32.8
2017-05-04T05:22:06.277Z,32.8
2017-05-04T05:23:07.414Z,32.7
2017-05-04T05:24:05.459Z,32.7
2017-05-04T05:25:06.207Z,32.7
2017-05-04T05:26:07.879Z,32.7
2017-05-04T05:27:06.168Z,32.8
2017-05-04T05:28:06.685Z,32.8
2017-05-04T05:29:05.671Z,32.7
2017-05-04T05:30:05.705Z,32.6
2017-05-04T05:31:07.365Z,32.6
2017-05-04T05:32:06.420Z,32.5
2017-05-04T05:33:07.516Z,32.4
2017-05-04T05:34:06.901Z,32.3
2017-05-04T05:35:07.073Z,32.2
2017-05-04T05:36:07.149Z,32.1
2017-05-04T05:37:06.810Z,32
2017-05-04T05:38:07.290Z,31.9
2017-05-04T05:39:07.316Z,31.8
2017-05-04T05:40:06.309Z,31.8
2017-05-04T05:41:07.399Z,31.7
2017-05-04T05:42:07.232Z,31.7
2017-05-04T05:43:17.817Z,31.6
2017-05-04T05:44:06.647Z,31.5
2017-05-04T05:45:06.595Z,31.5
2017-05-04T05:46:07.609Z,31.4
2017-05-04T05:47:06.534Z,31.4
2017-05-04T05:48:08.288Z,31.3
2017-05-04T05:49:06.903Z,31.2
2017-05-04T05:50:06.666Z,31.2
2017-05-04T05:51:08.442Z,31.1
2017-05-04T05:52:07.880Z,31.1
2017-05-04T05:53:07.505Z,31
2017-05-04T05:54:07.044Z,31
2017-05-04T05:55:07.194Z,30.9
2017-05-04T05:56:08.088Z,30.9
2017-05-04T05:57:07.204Z,30.8
2017-05-04T05:58:08.126Z,30.8
2017-05-04T05:59:08.507Z,30.7
2017-05-04T06:00:08.907Z,30.7
2017-05-04T06:01:11.419Z,30.6
2017-05-04T06:02:08.445Z,30.6
2017-05-04T06:03:10.130Z,30.5
2017-05-04T06:04:08.233Z,30.5
2017-05-04T06:05:07.470Z,30.5
2017-05-04T06:06:09.851Z,30.4
2017-05-04T06:07:10.103Z,30.4
2017-05-04T06:08:08.509Z,30.4
2017-05-04T06:09:09.167Z,30.3
2017-05-04T06:10:08.643Z,30.3
2017-05-04T06:11:08.621Z,30.3
2017-05-04T06:12:08.363Z,30.2
2017-05-04T06:13:10.621Z,30.1
2017-05-04T06:14:08.754Z,29.9
2017-05-04T06:15:07.735Z,29.8
2017-05-04T06:16:08.873Z,29.7
2017-05-04T06:17:07.864Z,29.6
2017-05-04T06:18:08.454Z,29.5
2017-05-04T06:19:08.279Z,29.4
2017-05-04T06:20:08.699Z,29.3
2017-05-04T06:21:09.143Z,29.2
2017-05-04T06:22:11.842Z,29.1
2017-05-04T06:23:11.204Z,29
2017-05-04T06:24:11.117Z,28.9
2017-05-04T06:25:10.414Z,28.9
2017-05-04T06:26:09.476Z,28.9
2017-05-04T06:27:08.524Z,28.9
2017-05-04T06:28:10.489Z,28.8
2017-05-04T06:29:10.183Z,28.7
2017-05-04T06:30:08.990Z,28.7
2017-05-04T06:31:10.496Z,28.6
2017-05-04T06:32:10.273Z,28.6
2017-05-04T06:33:11.034Z,28.5
2017-05-04T06:34:13.218Z,28.6
2017-05-04T06:35:10.575Z,28.6
2017-05-04T06:36:12.162Z,28.5
2017-05-04T06:37:09.068Z,28.6
2017-05-04T06:38:10.922Z,28.6
2017-05-04T06:39:10.431Z,28.7
2017-05-04T06:40:10.775Z,28.8
2017-05-04T06:41:10.318Z,28.8
2017-05-04T06:42:11.368Z,28.7
2017-05-04T06:43:11.727Z,28.7
2017-05-04T06:44:10.812Z,28.6
2017-05-04T06:45:10.625Z,28.6
2017-05-04T06:46:10.560Z,28.7
2017-05-04T06:47:10.735Z,28.7
2017-05-04T06:48:11.543Z,28.7
2017-05-04T06:49:11.973Z,28.6
2017-05-04T06:50:11.560Z,28.7
2017-05-04T06:51:12.890Z,28.6
2017-05-04T06:52:11.346Z,28.6
2017-05-04T06:53:12.252Z,28.6
2017-05-04T06:54:10.374Z,28.6
2017-05-04T06:55:12.496Z,28.5
2017-05-04T06:56:11.466Z,28.3
2017-05-04T06:57:12.673Z,28.3
2017-05-04T06:58:11.980Z,28.3
2017-05-04T06:59:12.014Z,28.3
2017-05-04T07:00:12.941Z,28.4
2017-05-04T07:01:11.426Z,28.4
2017-05-04T07:02:11.474Z,28.4
2017-05-04T07:03:11.263Z,28.3
2017-05-04T07:04:10.701Z,28.3
2017-05-04T07:05:12.436Z,28.4
2017-05-04T07:06:13.109Z,28.3
2017-05-04T07:07:12.524Z,28.3
2017-05-04T07:08:13.101Z,28.2
2017-05-04T07:09:12.639Z,28.2
2017-05-04T07:10:13.329Z,28.2
2017-05-04T07:11:12.840Z,28.2
2017-05-04T07:12:15.359Z,28.2
2017-05-04T07:13:13.490Z,28.1
2017-05-04T07:14:11.990Z,28
2017-05-04T07:15:14.038Z,27.9
2017-05-04T07:16:12.038Z,27.9
2017-05-04T07:17:22.414Z,27.8
2017-05-04T07:18:12.555Z,27.7
2017-05-04T07:19:12.749Z,27.7
2017-05-04T07:20:14.488Z,27.7
2017-05-04T07:21:14.281Z,27.6
2017-05-04T07:22:14.445Z,27.7
2017-05-04T07:23:14.537Z,27.7
2017-05-04T07:24:16.663Z,27.7
2017-05-04T07:25:16.223Z,27.7
2017-05-04T07:26:14.391Z,27.7
2017-05-04T07:27:14.299Z,27.7
2017-05-04T07:28:13.013Z,27.7
2017-05-04T07:29:11.989Z,27.8
2017-05-04T07:30:12.288Z,27.8
2017-05-04T07:31:15.063Z,27.7
2017-05-04T07:32:14.309Z,27.6
2017-05-04T07:33:14.960Z,27.6
2017-05-04T07:34:12.316Z,27.6
2017-05-04T07:35:12.275Z,27.5
2017-05-04T07:36:13.747Z,27.5
2017-05-04T07:37:14.066Z,27.4
2017-05-04T07:38:15.144Z,27.4
2017-05-04T07:39:16.456Z,27.4
2017-05-04T07:40:13.756Z,27.3
2017-05-04T07:41:14.552Z,27.4
2017-05-04T07:42:14.097Z,27.3
2017-05-04T07:43:13.331Z,27.3
2017-05-04T07:44:13.313Z,27.3
2017-05-04T07:45:14.290Z,27.3
2017-05-04T07:46:23.694Z,27.4
2017-05-04T07:47:13.899Z,27.5
2017-05-04T07:48:14.372Z,27.6
2017-05-04T07:49:13.649Z,27.6
2017-05-04T07:50:17.746Z,27.6
2017-05-04T07:51:17.005Z,27.6
2017-05-04T07:52:14.601Z,27.7
2017-05-04T07:53:20.776Z,27.9
2017-05-04T07:54:15.052Z,27.8
2017-05-04T07:55:14.261Z,27.9
2017-05-04T07:56:15.460Z,27.9
2017-05-04T07:57:16.165Z,27.9
2017-05-04T07:58:13.965Z,27.9
2017-05-04T07:59:13.958Z,27.9
2017-05-04T08:00:17.964Z,27.9
2017-05-04T08:01:14.964Z,27.9
2017-05-04T08:02:17.916Z,27.9
2017-05-04T08:04:16.085Z,28.1
2017-05-04T08:05:16.031Z,28.1
2017-05-04T08:06:17.332Z,28.1
2017-05-04T08:07:16.292Z,28.1
2017-05-04T08:08:15.775Z,28.1
2017-05-04T08:09:21.627Z,28.1
2017-05-04T08:10:19.061Z,28.1
2017-05-04T08:11:18.373Z,28.1
2017-05-04T08:12:16.231Z,28.1
2017-05-04T08:13:20.619Z,28.2
2017-05-04T08:14:18.370Z,28.2
2017-05-04T08:15:24.414Z,28.2
2017-05-04T08:16:17.464Z,28.2
2017-05-04T08:17:17.045Z,28.2
2017-05-04T08:18:17.325Z,28.1
2017-05-04T08:19:17.370Z,28.1
2017-05-04T08:20:16.760Z,28
2017-05-04T08:21:18.803Z,27.9
2017-05-04T08:22:19.641Z,27.8
2017-05-04T08:23:17.338Z,27.9
2017-05-04T08:24:18.945Z,27.9
2017-05-04T08:25:15.703Z,27.9
2017-05-04T08:26:21.126Z,27.9
2017-05-04T08:27:18.512Z,28
2017-05-04T08:28:15.426Z,28
2017-05-04T08:29:23.467Z,27.9
2017-05-04T08:30:18.539Z,27.9
2017-05-04T08:31:20.189Z,28
2017-05-04T08:33:16.794Z,28.1
2017-05-04T08:34:18.719Z,28.2
2017-05-04T08:35:15.710Z,28.2
2017-05-04T08:36:16.636Z,28.2
2017-05-04T08:37:17.656Z,28.2
2017-05-04T08:38:19.800Z,28.1
2017-05-04T08:39:17.739Z,28.1
2017-05-04T08:40:22.962Z,28.2
2017-05-04T08:41:19.519Z,28.2
2017-05-04T08:42:19.316Z,28.2
2017-05-04T08:43:18.779Z,28.1
2017-05-04T08:44:17.701Z,28.1
2017-05-04T08:45:19.540Z,28
2017-05-04T08:46:19.801Z,27.9
2017-05-04T08:47:18.230Z,27.9
2017-05-04T08:48:19.305Z,27.8
2017-05-04T08:49:20.053Z,27.7
2017-05-04T08:50:24.584Z,27.7
2017-05-04T08:52:17.786Z,27.5
2017-05-04T08:53:18.601Z,27.5
2017-05-04T08:54:17.995Z,27.5
2017-05-04T08:55:18.797Z,27.5
2017-05-04T08:56:17.999Z,27.4
2017-05-04T08:57:19.773Z,27.5
2017-05-04T08:58:17.397Z,27.5
2017-05-04T08:59:17.698Z,27.6
2017-05-04T09:00:20.392Z,27.6
2017-05-04T09:01:17.714Z,27.5
2017-05-04T09:02:21.127Z,27.5
2017-05-04T09:03:21.594Z,27.4
2017-05-04T09:04:18.002Z,27.4
2017-05-04T09:05:24.130Z,27.4
2017-05-04T09:06:26.696Z,27.4
2017-05-04T09:07:22.157Z,27.4
2017-05-04T09:08:25.468Z,27.4
2017-05-04T09:09:24.532Z,27.3
2017-05-04T09:10:26.908Z,27.3
2017-05-04T09:11:25.337Z,27.4
2017-05-04T09:12:21.078Z,27.4
2017-05-04T09:13:23.622Z,27.4
2017-05-04T09:14:28.072Z,27.4
2017-05-04T09:15:21.951Z,27.4
2017-05-04T09:16:23.654Z,27.5
2017-05-04T09:17:19.263Z,27.5
2017-05-04T09:18:22.679Z,27.5
2017-05-04T09:19:22.586Z,27.5
2017-05-04T09:20:19.112Z,27.5
2017-05-04T09:21:25.367Z,27.5
2017-05-04T09:22:23.345Z,27.6
2017-05-04T09:23:21.190Z,27.6
2017-05-04T09:24:20.372Z,27.5
2017-05-04T09:25:19.540Z,27.5
2017-05-04T09:26:21.624Z,27.6
2017-05-04T09:27:22.715Z,27.6
2017-05-04T09:28:21.171Z,27.7
2017-05-04T09:29:22.214Z,27.7
2017-05-04T09:30:21.657Z,27.8
2017-05-04T09:31:19.093Z,27.9
2017-05-04T09:32:20.327Z,27.8
2017-05-04T09:33:21.599Z,27.8
2017-05-04T09:34:17.967Z,27.9
2017-05-04T09:35:22.515Z,27.9
2017-05-04T09:36:24.011Z,28
2017-05-04T09:37:22.111Z,28
2017-05-04T09:38:18.919Z,28.1
2017-05-04T09:39:20.670Z,28
2017-05-04T09:40:23.067Z,28.1
2017-05-04T09:41:21.055Z,28.1
2017-05-04T09:42:22.304Z,28.1
2017-05-04T09:43:21.520Z,28.2
2017-05-04T09:44:21.892Z,28.2
2017-05-04T09:45:23.677Z,28.2
2017-05-04T09:46:22.350Z,28.1
2017-05-04T09:47:20.420Z,28.1
2017-05-04T09:48:23.258Z,28.2
2017-05-04T09:49:22.641Z,28.2
2017-05-04T09:50:22.434Z,28.1
2017-05-04T09:51:24.867Z,28.2
2017-05-04T09:52:22.199Z,28.1
2017-05-04T09:53:24.699Z,28.1
2017-05-04T09:54:23.873Z,28
2017-05-04T09:55:19.779Z,28
2017-05-04T09:56:24.390Z,28.1
2017-05-04T09:57:23.444Z,28.1
2017-05-04T09:58:25.382Z,28.2
2017-05-04T09:59:29.497Z,28.1
2017-05-04T10:00:20.878Z,28
2017-05-04T10:01:29.213Z,28
2017-05-04T10:02:21.804Z,27.9
2017-05-04T10:03:29.371Z,28
2017-05-04T10:05:32.007Z,28
2017-05-04T10:06:25.297Z,28
2017-05-04T10:07:28.521Z,28
2017-05-04T10:08:25.088Z,28.1
2017-05-04T10:09:22.521Z,28.1
2017-05-04T10:10:23.885Z,28.1
2017-05-04T10:11:22.115Z,28
2017-05-04T10:12:24.756Z,28
2017-05-04T10:13:21.800Z,28
2017-05-04T10:14:26.500Z,27.9
2017-05-04T10:15:23.765Z,27.9
2017-05-04T10:16:26.157Z,27.8
2017-05-04T10:17:27.672Z,27.8
2017-05-04T10:18:23.309Z,27.8
2017-05-04T10:19:24.352Z,27.8
2017-05-04T10:20:22.948Z,27.9
2017-05-04T10:21:26.197Z,27.8
2017-05-04T10:22:22.979Z,27.8
2017-05-04T10:23:27.366Z,27.8
2017-05-04T10:24:23.942Z,27.8
2017-05-04T10:25:25.441Z,27.8
2017-05-04T10:26:24.850Z,27.8
2017-05-04T10:27:27.014Z,27.8
2017-05-04T10:28:26.104Z,27.8
2017-05-04T10:29:23.439Z,27.8
2017-05-04T10:30:23.641Z,27.7
2017-05-04T10:31:25.588Z,27.7
2017-05-04T10:32:23.643Z,27.7
2017-05-04T10:33:24.170Z,27.6
2017-05-04T10:34:24.831Z,27.5
2017-05-04T10:35:24.451Z,27.5
2017-05-04T10:36:23.679Z,27.6
2017-05-04T10:37:23.136Z,27.7
2017-05-04T10:38:23.180Z,27.7
2017-05-04T10:39:24.242Z,27.7
2017-05-04T10:40:22.878Z,27.8
2017-05-04T10:41:23.685Z,27.9
2017-05-04T10:42:26.362Z,28
2017-05-04T10:43:26.022Z,28.1
2017-05-04T10:44:24.257Z,28.1
2017-05-04T10:45:26.228Z,28
2017-05-04T10:46:23.650Z,28
2017-05-04T10:47:23.417Z,28
2017-05-04T10:48:25.355Z,28.1
2017-05-04T10:49:25.176Z,28.2
2017-05-04T10:50:25.433Z,28.2
2017-05-04T10:51:23.658Z,28.3
2017-05-04T10:52:25.141Z,28.1
2017-05-04T10:53:27.372Z,28.1
2017-05-04T10:54:24.625Z,28.1
2017-05-04T10:55:24.655Z,28.2
2017-05-04T10:56:23.815Z,28.2
2017-05-04T10:57:24.840Z,28.2
2017-05-04T10:58:28.418Z,28.2
2017-05-04T10:59:33.595Z,28.2
2017-05-04T11:00:24.317Z,28.1
2017-05-04T11:01:27.633Z,28
2017-05-04T11:02:26.087Z,28.1
2017-05-04T11:03:24.439Z,28.1
2017-05-04T11:04:28.988Z,28.1
2017-05-04T11:05:25.085Z,28
2017-05-04T11:06:23.480Z,28
2017-05-04T11:07:24.755Z,28
2017-05-04T11:08:25.282Z,27.9
2017-05-04T11:09:25.163Z,27.8
2017-05-04T11:10:24.396Z,27.7
2017-05-04T11:11:25.923Z,27.7
2017-05-04T11:12:24.157Z,27.7
2017-05-04T11:13:24.707Z,27.8
2017-05-04T11:14:26.071Z,27.8
2017-05-04T11:15:25.284Z,27.9
2017-05-04T11:16:24.135Z,27.9
2017-05-04T11:17:27.149Z,28
2017-05-04T11:18:26.814Z,28
2017-05-04T11:19:25.566Z,28
2017-05-04T11:20:24.509Z,28.1
2017-05-04T11:21:27.204Z,28.1
2017-05-04T11:22:24.084Z,28.2
2017-05-04T11:23:25.523Z,28.2
2017-05-04T11:24:27.756Z,28.3
2017-05-04T11:25:26.736Z,28.2
2017-05-04T11:26:27.350Z,28.3
2017-05-04T11:27:24.465Z,28.2
2017-05-04T11:29:30.379Z,28.1
2017-05-04T11:30:26.916Z,28
2017-05-04T11:31:26.969Z,27.9
2017-05-04T11:32:25.047Z,27.9
2017-05-04T11:34:19.430Z,27.8
2017-05-04T11:35:18.884Z,27.8
2017-05-04T11:36:16.338Z,27.8
2017-05-04T11:39:19.504Z,27.6
2017-05-04T11:40:19.661Z,27.6
2017-05-04T11:41:29.135Z,27.6
2017-05-04T11:42:16.692Z,27.6
2017-05-04T11:43:18.402Z,27.7
2017-05-04T11:44:19.829Z,27.7
2017-05-04T11:45:16.889Z,27.7
2017-05-04T11:46:17.276Z,27.7
2017-05-04T11:47:20.226Z,27.8
2017-05-04T11:48:20.098Z,27.8
2017-05-04T11:49:21.565Z,27.8
2017-05-04T11:50:17.695Z,27.9
2017-05-04T11:51:20.278Z,27.9
2017-05-04T11:52:23.748Z,28
2017-05-04T11:53:19.586Z,28
2017-05-04T11:54:21.037Z,28
2017-05-04T11:55:17.410Z,28
2017-05-04T11:56:19.848Z,28
2017-05-04T11:57:21.702Z,28.1
2017-05-04T11:58:19.473Z,28.2
2017-05-04T11:59:19.405Z,28.3
2017-05-04T12:00:20.559Z,28.4
2017-05-04T12:01:20.931Z,28.4
2017-05-04T12:02:20.500Z,28.4
2017-05-04T12:03:26.432Z,28.4
2017-05-04T12:04:24.522Z,28.4
2017-05-04T12:05:25.510Z,28.5
2017-05-04T12:06:20.492Z,28.5
2017-05-04T12:07:25.413Z,28.5
2017-05-04T12:08:21.426Z,28.5
2017-05-04T12:09:20.470Z,28.6
2017-05-04T12:10:20.854Z,28.6
2017-05-04T12:11:18.374Z,28.6
2017-05-04T12:12:22.291Z,28.6
2017-05-04T12:13:19.713Z,28.6
2017-05-04T12:14:21.999Z,28.6
2017-05-04T12:15:19.849Z,28.7
2017-05-04T12:16:27.237Z,28.6
2017-05-04T12:17:21.578Z,28.6
2017-05-04T12:18:25.316Z,28.6
2017-05-04T12:19:31.169Z,28.6
2017-05-04T12:20:21.387Z,28.6
2017-05-04T12:21:19.669Z,28.6
2017-05-04T12:22:23.959Z,28.6
2017-05-04T12:23:25.215Z,28.6
2017-05-04T12:24:20.078Z,28.6
2017-05-04T12:25:22.628Z,28.7
2017-05-04T12:26:22.027Z,28.7
2017-05-04T12:27:22.948Z,28.7
2017-05-04T12:28:23.775Z,28.8
2017-05-04T12:29:26.094Z,28.8
2017-05-04T12:30:21.296Z,28.8
2017-05-04T12:31:22.204Z,28.9
2017-05-04T12:32:25.374Z,28.9
2017-05-04T12:33:20.828Z,28.8
2017-05-04T12:34:20.444Z,28.8
2017-05-04T12:35:24.385Z,28.8
2017-05-04T12:36:24.084Z,28.7
2017-05-04T12:37:23.238Z,28.6
2017-05-04T12:38:24.403Z,28.7
2017-05-04T12:39:23.377Z,28.6
2017-05-04T12:40:24.666Z,28.5
2017-05-04T12:41:22.954Z,28.5
2017-05-04T12:42:24.143Z,28.5
2017-05-04T12:43:25.030Z,28.5
2017-05-04T12:44:20.849Z,28.5
2017-05-04T12:45:24.007Z,28.6
2017-05-04T12:46:21.934Z,28.6
2017-05-04T12:47:22.601Z,28.7
2017-05-04T12:48:24.089Z,28.8
2017-05-04T12:49:20.859Z,28.8
2017-05-04T12:50:22.283Z,28.9
2017-05-04T12:51:22.867Z,28.9
2017-05-04T12:52:23.675Z,28.9
2017-05-04T12:53:22.924Z,29
2017-05-04T12:54:21.293Z,29.1
2017-05-04T12:55:22.015Z,29.1
2017-05-04T12:56:22.706Z,29.1
2017-05-04T12:57:22.403Z,29.1
2017-05-04T12:58:23.002Z,29
2017-05-04T12:59:21.416Z,29.1
2017-05-04T13:00:23.795Z,29.1
2017-05-04T13:01:29.009Z,29.2
2017-05-04T13:02:25.439Z,29.1
2017-05-04T13:03:24.140Z,29.1
2017-05-04T13:04:24.637Z,29.1
2017-05-04T13:05:22.932Z,29.1
2017-05-04T13:06:23.044Z,29.1
2017-05-04T13:07:23.247Z,29.1
2017-05-04T13:08:22.180Z,29.1
2017-05-04T13:09:24.780Z,29.1
2017-05-04T13:10:24.628Z,29.1
2017-05-04T13:11:26.595Z,29.2
2017-05-04T13:12:22.727Z,29.3
2017-05-04T13:13:24.829Z,29.3
2017-05-04T13:14:24.956Z,29.4
2017-05-04T13:15:23.758Z,29.4
2017-05-04T13:16:21.941Z,29.5
2017-05-04T13:17:23.905Z,29.4
2017-05-04T13:18:21.922Z,29.4
2017-05-04T13:19:21.994Z,29.4
2017-05-04T13:20:22.615Z,29.3
2017-05-04T13:21:23.406Z,29.3
2017-05-04T13:22:25.421Z,29.2
2017-05-04T13:23:22.484Z,29.2
2017-05-04T13:24:23.390Z,29.1
2017-05-04T13:25:23.090Z,29.1
2017-05-04T13:26:25.703Z,29
2017-05-04T13:27:24.816Z,29
2017-05-04T13:28:25.497Z,28.9
2017-05-04T13:29:24.991Z,28.8
2017-05-04T13:30:22.922Z,28.8
2017-05-04T13:31:28.065Z,28.8
2017-05-04T13:32:29.070Z,28.7
2017-05-04T13:33:24.565Z,28.7
2017-05-04T13:34:23.626Z,28.6